Jollyville, Texas
Current Conditions -  °F | °C
As of 10:51 AM on Friday 24 Oct 2014 (Local Time) from KATT Reporting Station
Clear Clear  
Wind Chill: 73°   Ceiling: Unl
Heat Index: 73°   Visibility: 10mi
Dew Point: 58°   Wind: 3mph
Humidity: 59%   Direction: NA
Pressure: 30.2"   Gusts: NA
Location:  30.44°N, 97.77°W
Report Text: KATT 241551Z AUTO VRB03KT 10SM CLR 23/14 A3020 RMK AO2 SLP217 T02280144
Loading
Personal Weather Stations






























Interactive Weather Map
Tropical Storm Tracking
New forecast layout! Learn more

10-Day Weather Forecast

Advertisements
Track Severe Weather on mobile